sensor_id;sensor_type;location;lat;lon;timestamp;temperature;humidity
11615;DHT22;5863;52.832;4.758;2022-07-11T00:00:14;17.90;99.90
11615;DHT22;5863;52.832;4.758;2022-07-11T00:02:41;18.10;99.90
11615;DHT22;5863;52.832;4.758;2022-07-11T00:05:10;18.10;99.90
11615;DHT22;5863;52.832;4.758;2022-07-11T00:07:37;18.10;99.90
11615;DHT22;5863;52.832;4.758;2022-07-11T00:10:05;18.10;99.90
11615;DHT22;5863;52.832;4.758;2022-07-11T00:12:32;18.10;99.90
11615;DHT22;5863;52.832;4.758;2022-07-11T00:14:58;18.00;99.90
11615;DHT22;5863;52.832;4.758;2022-07-11T00:17:25;18.00;99.90
11615;DHT22;5863;52.832;4.758;2022-07-11T00:19:52;17.90;99.90
11615;DHT22;5863;52.832;4.758;2022-07-11T00:22:20;18.00;99.90
11615;DHT22;5863;52.832;4.758;2022-07-11T00:24:47;17.90;99.90
11615;DHT22;5863;52.832;4.758;2022-07-11T00:27:13;17.90;99.90
11615;DHT22;5863;52.832;4.758;2022-07-11T00:29:40;17.90;99.90
11615;DHT22;5863;52.832;4.758;2022-07-11T00:32:07;17.90;99.90
11615;DHT22;5863;52.832;4.758;2022-07-11T00:34:34;17.90;99.90
11615;DHT22;5863;52.832;4.758;2022-07-11T00:37:01;17.90;99.90
11615;DHT22;5863;52.832;4.758;2022-07-11T00:39:29;17.90;99.90
11615;DHT22;5863;52.832;4.758;2022-07-11T00:41:56;17.90;99.90
11615;DHT22;5863;52.832;4.758;2022-07-11T00:44:23;17.90;99.90
11615;DHT22;5863;52.832;4.758;2022-07-11T00:46:49;17.80;99.90
11615;DHT22;5863;52.832;4.758;2022-07-11T00:49:16;17.90;99.90
11615;DHT22;5863;52.832;4.758;2022-07-11T00:51:43;17.80;99.90
11615;DHT22;5863;52.832;4.758;2022-07-11T00:54:10;17.80;99.90
11615;DHT22;5863;52.832;4.758;2022-07-11T00:56:38;17.80;99.90
11615;DHT22;5863;52.832;4.758;2022-07-11T00:59:05;17.80;99.90
11615;DHT22;5863;52.832;4.758;2022-07-11T01:01:34;17.80;99.90
11615;DHT22;5863;52.832;4.758;2022-07-11T01:04:03;17.80;99.90
11615;DHT22;5863;52.832;4.758;2022-07-11T01:06:30;17.80;99.90
11615;DHT22;5863;52.832;4.758;2022-07-11T01:08:57;17.80;99.90
11615;DHT22;5863;52.832;4.758;2022-07-11T01:11:26;17.90;99.90
11615;DHT22;5863;52.832;4.758;2022-07-11T01:13:54;17.90;99.90
11615;DHT22;5863;52.832;4.758;2022-07-11T01:16:22;17.90;99.90
11615;DHT22;5863;52.832;4.758;2022-07-11T01:18:50;17.90;99.90
11615;DHT22;5863;52.832;4.758;2022-07-11T01:21:22;17.90;99.90
11615;DHT22;5863;52.832;4.758;2022-07-11T01:23:52;17.90;99.90
11615;DHT22;5863;52.832;4.758;2022-07-11T01:26:20;17.90;99.90
11615;DHT22;5863;52.832;4.758;2022-07-11T01:28:48;17.80;99.90
11615;DHT22;5863;52.832;4.758;2022-07-11T01:31:15;17.80;99.90
11615;DHT22;5863;52.832;4.758;2022-07-11T01:33:42;17.70;99.90
11615;DHT22;5863;52.832;4.758;2022-07-11T01:36:09;17.60;99.90
11615;DHT22;5863;52.832;4.758;2022-07-11T01:38:35;17.70;99.90
11615;DHT22;5863;52.832;4.758;2022-07-11T01:41:04;17.70;99.90
11615;DHT22;5863;52.832;4.758;2022-07-11T01:43:31;17.70;99.90
11615;DHT22;5863;52.832;4.758;2022-07-11T01:45:58;17.80;99.90
11615;DHT22;5863;52.832;4.758;2022-07-11T01:48:25;17.90;99.90
11615;DHT22;5863;52.832;4.758;2022-07-11T01:50:52;17.70;99.90
11615;DHT22;5863;52.832;4.758;2022-07-11T01:53:18;17.60;99.90
11615;DHT22;5863;52.832;4.758;2022-07-11T01:55:45;17.60;99.90
11615;DHT22;5863;52.832;4.758;2022-07-11T01:58:13;17.60;99.90
11615;DHT22;5863;52.832;4.758;2022-07-11T02:00:40;17.60;99.90
11615;DHT22;5863;52.832;4.758;2022-07-11T02:03:08;17.70;99.90
11615;DHT22;5863;52.832;4.758;2022-07-11T02:05:35;17.60;99.90
11615;DHT22;5863;52.832;4.758;2022-07-11T02:08:05;17.60;99.90
11615;DHT22;5863;52.832;4.758;2022-07-11T02:10:42;17.70;99.90
11615;DHT22;5863;52.832;4.758;2022-07-11T02:13:12;17.60;99.90
11615;DHT22;5863;52.832;4.758;2022-07-11T02:15:39;17.60;99.90
11615;DHT22;5863;52.832;4.758;2022-07-11T02:18:07;17.50;99.90
11615;DHT22;5863;52.832;4.758;2022-07-11T02:20:34;17.50;99.90
11615;DHT22;5863;52.832;4.758;2022-07-11T02:23:01;17.50;99.90
11615;DHT22;5863;52.832;4.758;2022-07-11T02:25:29;17.50;99.90
11615;DHT22;5863;52.832;4.758;2022-07-11T02:27:56;17.60;99.90
11615;DHT22;5863;52.832;4.758;2022-07-11T02:30:24;17.70;99.90
11615;DHT22;5863;52.832;4.758;2022-07-11T02:32:51;17.60;99.90
11615;DHT22;5863;52.832;4.758;2022-07-11T02:35:18;17.60;99.90
11615;DHT22;5863;52.832;4.758;2022-07-11T02:37:45;17.60;99.90
11615;DHT22;5863;52.832;4.758;2022-07-11T02:40:11;17.50;99.90
11615;DHT22;5863;52.832;4.758;2022-07-11T02:42:38;17.50;99.90
11615;DHT22;5863;52.832;4.758;2022-07-11T02:45:06;17.50;99.90
11615;DHT22;5863;52.832;4.758;2022-07-11T02:47:35;17.50;99.90
11615;DHT22;5863;52.832;4.758;2022-07-11T02:50:03;17.50;99.90
11615;DHT22;5863;52.832;4.758;2022-07-11T02:52:29;17.50;99.90
11615;DHT22;5863;52.832;4.758;2022-07-11T02:54:56;17.60;99.90
11615;DHT22;5863;52.832;4.758;2022-07-11T02:57:23;17.60;99.90
11615;DHT22;5863;52.832;4.758;2022-07-11T02:59:49;17.60;99.90
11615;DHT22;5863;52.832;4.758;2022-07-11T03:02:16;17.50;99.90
11615;DHT22;5863;52.832;4.758;2022-07-11T03:04:44;17.50;99.90
11615;DHT22;5863;52.832;4.758;2022-07-11T03:07:11;17.50;99.90
11615;DHT22;5863;52.832;4.758;2022-07-11T03:09:38;17.60;99.90
11615;DHT22;5863;52.832;4.758;2022-07-11T03:12:05;17.60;99.90
11615;DHT22;5863;52.832;4.758;2022-07-11T03:14:32;17.60;99.90
11615;DHT22;5863;52.832;4.758;2022-07-11T03:16:59;17.70;99.90
11615;DHT22;5863;52.832;4.758;2022-07-11T03:19:25;17.60;99.90
11615;DHT22;5863;52.832;4.758;2022-07-11T03:21:53;17.70;99.90
11615;DHT22;5863;52.832;4.758;2022-07-11T03:24:20;17.70;99.90
11615;DHT22;5863;52.832;4.758;2022-07-11T03:26:47;17.70;99.90
11615;DHT22;5863;52.832;4.758;2022-07-11T03:29:13;17.70;99.90
11615;DHT22;5863;52.832;4.758;2022-07-11T03:31:40;17.60;99.90
11615;DHT22;5863;52.832;4.758;2022-07-11T03:34:07;17.60;99.90
11615;DHT22;5863;52.832;4.758;2022-07-11T03:36:34;17.60;99.90
11615;DHT22;5863;52.832;4.758;2022-07-11T03:39:02;17.60;99.90
11615;DHT22;5863;52.832;4.758;2022-07-11T03:41:29;17.60;99.90
11615;DHT22;5863;52.832;4.758;2022-07-11T03:43:55;17.60;99.90
11615;DHT22;5863;52.832;4.758;2022-07-11T03:46:23;17.50;99.90
11615;DHT22;5863;52.832;4.758;2022-07-11T03:48:49;17.50;99.90
11615;DHT22;5863;52.832;4.758;2022-07-11T03:51:16;17.40;99.90
11615;DHT22;5863;52.832;4.758;2022-07-11T03:53:43;17.40;99.90
11615;DHT22;5863;52.832;4.758;2022-07-11T03:56:11;17.40;99.90
11615;DHT22;5863;52.832;4.758;2022-07-11T03:58:38;17.40;99.90
11615;DHT22;5863;52.832;4.758;2022-07-11T04:01:04;17.40;99.90
11615;DHT22;5863;52.832;4.758;2022-07-11T04:03:31;17.40;99.90
11615;DHT22;5863;52.832;4.758;2022-07-11T04:05:58;17.40;99.90
11615;DHT22;5863;52.832;4.758;2022-07-11T04:08:25;17.40;99.90
11615;DHT22;5863;52.832;4.758;2022-07-11T04:10:52;17.50;99.90
11615;DHT22;5863;52.832;4.758;2022-07-11T04:13:20;17.50;99.90
11615;DHT22;5863;52.832;4.758;2022-07-11T04:15:47;17.50;99.90
11615;DHT22;5863;52.832;4.758;2022-07-11T04:18:13;17.50;99.90
11615;DHT22;5863;52.832;4.758;2022-07-11T04:20:40;17.40;99.90
11615;DHT22;5863;52.832;4.758;2022-07-11T04:23:07;17.40;99.90
11615;DHT22;5863;52.832;4.758;2022-07-11T04:25:34;17.40;99.90
11615;DHT22;5863;52.832;4.758;2022-07-11T04:28:01;17.40;99.90
11615;DHT22;5863;52.832;4.758;2022-07-11T04:30:29;17.40;99.90
11615;DHT22;5863;52.832;4.758;2022-07-11T04:32:55;17.40;99.90
11615;DHT22;5863;52.832;4.758;2022-07-11T04:35:22;17.40;99.90
11615;DHT22;5863;52.832;4.758;2022-07-11T04:37:49;17.40;99.90
11615;DHT22;5863;52.832;4.758;2022-07-11T04:40:16;17.40;99.90
11615;DHT22;5863;52.832;4.758;2022-07-11T04:42:44;17.40;99.90
11615;DHT22;5863;52.832;4.758;2022-07-11T04:45:11;17.40;99.90
11615;DHT22;5863;52.832;4.758;2022-07-11T04:47:39;17.40;99.90
11615;DHT22;5863;52.832;4.758;2022-07-11T04:50:08;17.40;99.90
11615;DHT22;5863;52.832;4.758;2022-07-11T04:52:35;17.50;99.90
11615;DHT22;5863;52.832;4.758;2022-07-11T04:55:02;17.50;99.90
11615;DHT22;5863;52.832;4.758;2022-07-11T04:57:28;17.50;99.90
11615;DHT22;5863;52.832;4.758;2022-07-11T04:59:55;17.50;99.90
11615;DHT22;5863;52.832;4.758;2022-07-11T05:02:22;17.50;99.90
11615;DHT22;5863;52.832;4.758;2022-07-11T05:04:50;17.50;99.90
11615;DHT22;5863;52.832;4.758;2022-07-11T05:07:16;17.50;99.90
11615;DHT22;5863;52.832;4.758;2022-07-11T05:09:46;17.40;99.90
11615;DHT22;5863;52.832;4.758;2022-07-11T05:12:13;17.40;99.90
11615;DHT22;5863;52.832;4.758;2022-07-11T05:14:40;17.40;99.90
11615;DHT22;5863;52.832;4.758;2022-07-11T05:17:06;17.50;99.90
11615;DHT22;5863;52.832;4.758;2022-07-11T05:19:33;17.50;99.90
11615;DHT22;5863;52.832;4.758;2022-07-11T05:22:01;17.50;99.90
11615;DHT22;5863;52.832;4.758;2022-07-11T05:24:28;17.60;99.90
11615;DHT22;5863;52.832;4.758;2022-07-11T05:26:55;17.60;99.90
11615;DHT22;5863;52.832;4.758;2022-07-11T05:29:21;17.70;99.90
11615;DHT22;5863;52.832;4.758;2022-07-11T05:31:48;17.60;99.90
11615;DHT22;5863;52.832;4.758;2022-07-11T05:34:18;17.70;99.90
11615;DHT22;5863;52.832;4.758;2022-07-11T05:36:45;18.20;99.90
11615;DHT22;5863;52.832;4.758;2022-07-11T05:39:14;19.10;99.90
11615;DHT22;5863;52.832;4.758;2022-07-11T05:41:41;20.10;99.90
11615;DHT22;5863;52.832;4.758;2022-07-11T05:44:08;21.30;99.90
11615;DHT22;5863;52.832;4.758;2022-07-11T05:46:35;21.90;99.90
11615;DHT22;5863;52.832;4.758;2022-07-11T05:49:05;21.70;99.90
11615;DHT22;5863;52.832;4.758;2022-07-11T05:51:32;21.30;99.90
11615;DHT22;5863;52.832;4.758;2022-07-11T05:53:58;20.90;99.90
11615;DHT22;5863;52.832;4.758;2022-07-11T05:56:27;20.50;99.90
11615;DHT22;5863;52.832;4.758;2022-07-11T05:58:55;20.10;99.90
11615;DHT22;5863;52.832;4.758;2022-07-11T06:01:22;19.80;99.90
11615;DHT22;5863;52.832;4.758;2022-07-11T06:03:49;19.40;99.90
11615;DHT22;5863;52.832;4.758;2022-07-11T06:06:17;19.30;99.90
11615;DHT22;5863;52.832;4.758;2022-07-11T06:08:44;19.10;99.90
11615;DHT22;5863;52.832;4.758;2022-07-11T06:11:12;18.90;99.90
11615;DHT22;5863;52.832;4.758;2022-07-11T06:13:41;18.80;99.90
11615;DHT22;5863;52.832;4.758;2022-07-11T06:16:08;18.70;99.90
11615;DHT22;5863;52.832;4.758;2022-07-11T06:18:36;18.60;99.90
11615;DHT22;5863;52.832;4.758;2022-07-11T06:21:03;18.60;99.90
11615;DHT22;5863;52.832;4.758;2022-07-11T06:23:31;18.60;99.90
11615;DHT22;5863;52.832;4.758;2022-07-11T06:25:57;18.60;99.90
11615;DHT22;5863;52.832;4.758;2022-07-11T06:28:24;18.60;99.90
11615;DHT22;5863;52.832;4.758;2022-07-11T06:30:52;18.60;99.90
11615;DHT22;5863;52.832;4.758;2022-07-11T06:33:20;19.00;99.90
11615;DHT22;5863;52.832;4.758;2022-07-11T06:35:47;19.70;99.90
11615;DHT22;5863;52.832;4.758;2022-07-11T06:38:15;20.10;99.90
11615;DHT22;5863;52.832;4.758;2022-07-11T06:40:42;20.80;99.90
11615;DHT22;5863;52.832;4.758;2022-07-11T06:43:09;21.10;99.90
11615;DHT22;5863;52.832;4.758;2022-07-11T06:45:37;21.30;99.90
11615;DHT22;5863;52.832;4.758;2022-07-11T06:48:05;22.30;99.90
11615;DHT22;5863;52.832;4.758;2022-07-11T06:50:32;23.50;99.90
11615;DHT22;5863;52.832;4.758;2022-07-11T06:52:59;24.10;99.90
11615;DHT22;5863;52.832;4.758;2022-07-11T06:55:26;24.10;99.90
11615;DHT22;5863;52.832;4.758;2022-07-11T06:57:53;23.60;99.90
11615;DHT22;5863;52.832;4.758;2022-07-11T07:00:20;22.80;99.90
11615;DHT22;5863;52.832;4.758;2022-07-11T07:02:46;22.30;99.90
11615;DHT22;5863;52.832;4.758;2022-07-11T07:05:15;21.80;99.90
11615;DHT22;5863;52.832;4.758;2022-07-11T07:07:41;21.30;99.90
11615;DHT22;5863;52.832;4.758;2022-07-11T07:10:09;21.00;99.90
11615;DHT22;5863;52.832;4.758;2022-07-11T07:12:37;20.70;99.90
11615;DHT22;5863;52.832;4.758;2022-07-11T07:15:05;20.40;99.90
11615;DHT22;5863;52.832;4.758;2022-07-11T07:17:32;20.40;99.90
11615;DHT22;5863;52.832;4.758;2022-07-11T07:19:59;20.50;99.90
11615;DHT22;5863;52.832;4.758;2022-07-11T07:22:28;20.40;99.90
11615;DHT22;5863;52.832;4.758;2022-07-11T07:24:54;20.30;99.90
11615;DHT22;5863;52.832;4.758;2022-07-11T07:27:21;20.20;99.90
11615;DHT22;5863;52.832;4.758;2022-07-11T07:29:48;20.00;99.90
11615;DHT22;5863;52.832;4.758;2022-07-11T07:32:15;20.00;99.90
11615;DHT22;5863;52.832;4.758;2022-07-11T07:34:41;20.10;99.90
11615;DHT22;5863;52.832;4.758;2022-07-11T07:37:08;20.10;99.90
11615;DHT22;5863;52.832;4.758;2022-07-11T07:39:36;20.10;99.90
11615;DHT22;5863;52.832;4.758;2022-07-11T07:42:03;20.10;99.90
11615;DHT22;5863;52.832;4.758;2022-07-11T07:44:31;20.00;99.90
11615;DHT22;5863;52.832;4.758;2022-07-11T07:46:59;20.00;99.90
11615;DHT22;5863;52.832;4.758;2022-07-11T07:49:25;20.20;99.90
11615;DHT22;5863;52.832;4.758;2022-07-11T07:51:52;20.20;99.90
11615;DHT22;5863;52.832;4.758;2022-07-11T07:54:19;20.20;99.90
11615;DHT22;5863;52.832;4.758;2022-07-11T07:56:47;20.10;99.90
11615;DHT22;5863;52.832;4.758;2022-07-11T07:59:14;20.00;99.90
11615;DHT22;5863;52.832;4.758;2022-07-11T08:01:40;19.90;99.90
11615;DHT22;5863;52.832;4.758;2022-07-11T08:04:09;19.80;99.90
11615;DHT22;5863;52.832;4.758;2022-07-11T08:06:36;19.70;99.90
11615;DHT22;5863;52.832;4.758;2022-07-11T08:09:05;19.80;99.90
11615;DHT22;5863;52.832;4.758;2022-07-11T08:11:32;19.80;99.90
11615;DHT22;5863;52.832;4.758;2022-07-11T08:14:02;19.90;99.90
11615;DHT22;5863;52.832;4.758;2022-07-11T08:16:30;19.90;99.90
11615;DHT22;5863;52.832;4.758;2022-07-11T08:18:58;19.90;99.90
11615;DHT22;5863;52.832;4.758;2022-07-11T08:21:28;19.80;99.90
11615;DHT22;5863;52.832;4.758;2022-07-11T08:23:55;19.80;99.90
11615;DHT22;5863;52.832;4.758;2022-07-11T08:26:22;19.80;99.90
11615;DHT22;5863;52.832;4.758;2022-07-11T08:28:49;19.80;99.90
11615;DHT22;5863;52.832;4.758;2022-07-11T08:31:18;19.80;99.90
11615;DHT22;5863;52.832;4.758;2022-07-11T08:33:45;19.70;99.90
11615;DHT22;5863;52.832;4.758;2022-07-11T08:36:11;19.80;99.90
11615;DHT22;5863;52.832;4.758;2022-07-11T08:38:38;19.80;99.90
11615;DHT22;5863;52.832;4.758;2022-07-11T08:41:10;19.70;99.90
11615;DHT22;5863;52.832;4.758;2022-07-11T08:43:37;19.70;99.90
11615;DHT22;5863;52.832;4.758;2022-07-11T08:46:05;19.80;99.90
11615;DHT22;5863;52.832;4.758;2022-07-11T08:48:34;19.80;99.90
11615;DHT22;5863;52.832;4.758;2022-07-11T08:51:05;19.90;99.90
11615;DHT22;5863;52.832;4.758;2022-07-11T08:53:33;19.90;99.90
11615;DHT22;5863;52.832;4.758;2022-07-11T08:56:07;20.00;99.90
11615;DHT22;5863;52.832;4.758;2022-07-11T08:58:36;20.10;99.90
11615;DHT22;5863;52.832;4.758;2022-07-11T09:01:05;20.20;99.90
11615;DHT22;5863;52.832;4.758;2022-07-11T09:03:35;20.20;99.90
11615;DHT22;5863;52.832;4.758;2022-07-11T09:06:03;20.30;99.90
11615;DHT22;5863;52.832;4.758;2022-07-11T09:08:30;20.40;99.90
11615;DHT22;5863;52.832;4.758;2022-07-11T09:10:57;20.50;99.90
11615;DHT22;5863;52.832;4.758;2022-07-11T09:13:27;20.60;99.90
11615;DHT22;5863;52.832;4.758;2022-07-11T09:16:00;20.60;99.90
11615;DHT22;5863;52.832;4.758;2022-07-11T09:18:33;20.60;99.90
11615;DHT22;5863;52.832;4.758;2022-07-11T09:21:02;20.80;99.90
11615;DHT22;5863;52.832;4.758;2022-07-11T09:23:47;20.80;99.90
11615;DHT22;5863;52.832;4.758;2022-07-11T09:26:32;20.70;99.90
11615;DHT22;5863;52.832;4.758;2022-07-11T09:29:07;20.70;99.90
11615;DHT22;5863;52.832;4.758;2022-07-11T09:31:34;20.80;99.90
11615;DHT22;5863;52.832;4.758;2022-07-11T09:34:05;20.70;99.90
11615;DHT22;5863;52.832;4.758;2022-07-11T09:36:40;20.90;99.90
11615;DHT22;5863;52.832;4.758;2022-07-11T09:39:09;20.80;99.90
11615;DHT22;5863;52.832;4.758;2022-07-11T09:41:37;20.70;99.90
11615;DHT22;5863;52.832;4.758;2022-07-11T09:44:12;20.80;99.90
11615;DHT22;5863;52.832;4.758;2022-07-11T09:46:40;21.00;99.90
11615;DHT22;5863;52.832;4.758;2022-07-11T09:49:08;21.10;99.90
11615;DHT22;5863;52.832;4.758;2022-07-11T09:51:36;21.20;99.90
11615;DHT22;5863;52.832;4.758;2022-07-11T09:54:05;21.40;99.90
11615;DHT22;5863;52.832;4.758;2022-07-11T09:56:34;21.50;99.90
11615;DHT22;5863;52.832;4.758;2022-07-11T09:59:02;21.70;99.90
11615;DHT22;5863;52.832;4.758;2022-07-11T10:01:30;21.80;99.90
11615;DHT22;5863;52.832;4.758;2022-07-11T10:03:58;21.80;99.90
11615;DHT22;5863;52.832;4.758;2022-07-11T10:06:26;21.80;99.90
11615;DHT22;5863;52.832;4.758;2022-07-11T10:08:53;21.80;99.90
11615;DHT22;5863;52.832;4.758;2022-07-11T10:11:21;21.80;99.90
11615;DHT22;5863;52.832;4.758;2022-07-11T10:13:47;21.90;99.90
11615;DHT22;5863;52.832;4.758;2022-07-11T10:16:22;22.00;99.90
11615;DHT22;5863;52.832;4.758;2022-07-11T10:18:55;22.00;99.90
11615;DHT22;5863;52.832;4.758;2022-07-11T10:21:30;22.10;99.90
11615;DHT22;5863;52.832;4.758;2022-07-11T10:24:02;22.30;99.90
11615;DHT22;5863;52.832;4.758;2022-07-11T10:26:40;22.30;99.90
11615;DHT22;5863;52.832;4.758;2022-07-11T10:29:14;22.40;99.90
11615;DHT22;5863;52.832;4.758;2022-07-11T10:31:41;22.50;99.90
11615;DHT22;5863;52.832;4.758;2022-07-11T10:34:09;22.40;99.90
11615;DHT22;5863;52.832;4.758;2022-07-11T10:36:44;22.20;99.90
11615;DHT22;5863;52.832;4.758;2022-07-11T10:39:16;22.20;99.90
11615;DHT22;5863;52.832;4.758;2022-07-11T10:41:44;22.30;99.90
11615;DHT22;5863;52.832;4.758;2022-07-11T10:44:10;22.40;99.90
11615;DHT22;5863;52.832;4.758;2022-07-11T10:46:37;22.60;99.90
11615;DHT22;5863;52.832;4.758;2022-07-11T10:49:13;22.70;99.90
11615;DHT22;5863;52.832;4.758;2022-07-11T10:51:50;23.00;99.90
11615;DHT22;5863;52.832;4.758;2022-07-11T10:54:30;23.10;99.90
11615;DHT22;5863;52.832;4.758;2022-07-11T10:57:13;23.20;99.90
11615;DHT22;5863;52.832;4.758;2022-07-11T10:59:57;23.20;99.90
11615;DHT22;5863;52.832;4.758;2022-07-11T11:02:24;23.40;99.90
11615;DHT22;5863;52.832;4.758;2022-07-11T11:04:54;23.50;99.90
11615;DHT22;5863;52.832;4.758;2022-07-11T11:07:30;23.70;99.90
11615;DHT22;5863;52.832;4.758;2022-07-11T11:09:57;23.70;99.90
11615;DHT22;5863;52.832;4.758;2022-07-11T11:15:35;23.80;99.90
11615;DHT22;5863;52.832;4.758;2022-07-11T11:18:33;23.90;99.90
11615;DHT22;5863;52.832;4.758;2022-07-11T11:21:20;23.80;99.90
11615;DHT22;5863;52.832;4.758;2022-07-11T11:24:05;23.80;99.90
11615;DHT22;5863;52.832;4.758;2022-07-11T11:26:57;23.80;99.90
11615;DHT22;5863;52.832;4.758;2022-07-11T11:29:25;23.80;99.90
11615;DHT22;5863;52.832;4.758;2022-07-11T11:31:56;23.90;99.90
11615;DHT22;5863;52.832;4.758;2022-07-11T11:34:24;23.90;99.90
11615;DHT22;5863;52.832;4.758;2022-07-11T11:36:56;24.00;99.90
11615;DHT22;5863;52.832;4.758;2022-07-11T11:39:27;24.10;99.90
11615;DHT22;5863;52.832;4.758;2022-07-11T11:42:01;24.10;99.70
11615;DHT22;5863;52.832;4.758;2022-07-11T11:44:27;24.10;99.30
11615;DHT22;5863;52.832;4.758;2022-07-11T11:46:54;24.10;99.40
11615;DHT22;5863;52.832;4.758;2022-07-11T11:49:21;24.00;99.40
11615;DHT22;5863;52.832;4.758;2022-07-11T11:51:48;24.00;99.10
11615;DHT22;5863;52.832;4.758;2022-07-11T11:54:21;24.00;99.10
11615;DHT22;5863;52.832;4.758;2022-07-11T11:56:51;23.90;99.10
11615;DHT22;5863;52.832;4.758;2022-07-11T11:59:28;23.90;99.30
11615;DHT22;5863;52.832;4.758;2022-07-11T12:01:55;23.80;99.20
11615;DHT22;5863;52.832;4.758;2022-07-11T12:04:22;23.70;99.00
11615;DHT22;5863;52.832;4.758;2022-07-11T12:06:49;23.80;99.30
11615;DHT22;5863;52.832;4.758;2022-07-11T12:09:18;23.70;99.30
11615;DHT22;5863;52.832;4.758;2022-07-11T12:11:46;23.80;99.30
11615;DHT22;5863;52.832;4.758;2022-07-11T12:14:15;23.70;99.50
11615;DHT22;5863;52.832;4.758;2022-07-11T12:16:44;23.60;99.40
11615;DHT22;5863;52.832;4.758;2022-07-11T12:19:13;23.60;99.60
11615;DHT22;5863;52.832;4.758;2022-07-11T12:21:41;23.50;99.20
11615;DHT22;5863;52.832;4.758;2022-07-11T12:24:12;23.50;99.50
11615;DHT22;5863;52.832;4.758;2022-07-11T12:26:42;23.40;99.40
11615;DHT22;5863;52.832;4.758;2022-07-11T12:29:11;23.20;99.60
11615;DHT22;5863;52.832;4.758;2022-07-11T12:31:44;23.20;99.90
11615;DHT22;5863;52.832;4.758;2022-07-11T12:34:11;23.20;99.90
11615;DHT22;5863;52.832;4.758;2022-07-11T12:36:38;23.20;99.90
11615;DHT22;5863;52.832;4.758;2022-07-11T12:39:05;23.20;99.80
11615;DHT22;5863;52.832;4.758;2022-07-11T12:41:32;23.30;99.90
11615;DHT22;5863;52.832;4.758;2022-07-11T12:43:59;23.40;99.90
11615;DHT22;5863;52.832;4.758;2022-07-11T12:46:45;23.50;99.80
11615;DHT22;5863;52.832;4.758;2022-07-11T12:49:13;23.70;99.90
11615;DHT22;5863;52.832;4.758;2022-07-11T12:51:41;23.70;99.10
11615;DHT22;5863;52.832;4.758;2022-07-11T12:54:09;23.60;98.60
11615;DHT22;5863;52.832;4.758;2022-07-11T12:56:37;23.60;99.00
11615;DHT22;5863;52.832;4.758;2022-07-11T12:59:05;23.60;99.10
11615;DHT22;5863;52.832;4.758;2022-07-11T13:01:32;23.50;98.40
11615;DHT22;5863;52.832;4.758;2022-07-11T13:04:00;23.50;98.90
11615;DHT22;5863;52.832;4.758;2022-07-11T13:06:27;23.40;99.30
11615;DHT22;5863;52.832;4.758;2022-07-11T13:09:14;23.40;99.10
11615;DHT22;5863;52.832;4.758;2022-07-11T13:11:41;23.40;99.10
11615;DHT22;5863;52.832;4.758;2022-07-11T13:14:08;23.30;99.40
11615;DHT22;5863;52.832;4.758;2022-07-11T13:16:48;23.30;99.80
11615;DHT22;5863;52.832;4.758;2022-07-11T13:19:16;23.30;99.90
11615;DHT22;5863;52.832;4.758;2022-07-11T13:21:43;23.20;99.60
11615;DHT22;5863;52.832;4.758;2022-07-11T13:24:09;23.20;99.50
11615;DHT22;5863;52.832;4.758;2022-07-11T13:26:36;23.20;99.60
11615;DHT22;5863;52.832;4.758;2022-07-11T13:29:03;23.10;99.80
11615;DHT22;5863;52.832;4.758;2022-07-11T13:31:30;23.10;99.90
11615;DHT22;5863;52.832;4.758;2022-07-11T13:33:56;23.10;99.90
11615;DHT22;5863;52.832;4.758;2022-07-11T13:36:24;23.10;99.90
11615;DHT22;5863;52.832;4.758;2022-07-11T13:38:51;23.10;99.90
11615;DHT22;5863;52.832;4.758;2022-07-11T13:41:18;23.00;99.90
11615;DHT22;5863;52.832;4.758;2022-07-11T13:43:46;23.00;99.90
11615;DHT22;5863;52.832;4.758;2022-07-11T13:46:12;23.00;99.90
11615;DHT22;5863;52.832;4.758;2022-07-11T13:48:39;22.90;99.90
11615;DHT22;5863;52.832;4.758;2022-07-11T13:51:07;22.80;99.90
11615;DHT22;5863;52.832;4.758;2022-07-11T13:53:36;22.70;99.90
11615;DHT22;5863;52.832;4.758;2022-07-11T13:56:03;22.90;99.90
11615;DHT22;5863;52.832;4.758;2022-07-11T13:58:31;22.90;99.90
11615;DHT22;5863;52.832;4.758;2022-07-11T14:00:58;22.80;99.90
11615;DHT22;5863;52.832;4.758;2022-07-11T14:03:25;22.80;99.90
11615;DHT22;5863;52.832;4.758;2022-07-11T14:05:52;22.80;99.90
11615;DHT22;5863;52.832;4.758;2022-07-11T14:08:19;22.70;99.90
11615;DHT22;5863;52.832;4.758;2022-07-11T14:10:47;22.60;99.90
11615;DHT22;5863;52.832;4.758;2022-07-11T14:13:14;22.40;99.90
11615;DHT22;5863;52.832;4.758;2022-07-11T14:15:41;22.20;99.90
11615;DHT22;5863;52.832;4.758;2022-07-11T14:18:08;22.10;99.90
11615;DHT22;5863;52.832;4.758;2022-07-11T14:20:34;22.10;99.90
11615;DHT22;5863;52.832;4.758;2022-07-11T14:23:01;22.20;99.90
11615;DHT22;5863;52.832;4.758;2022-07-11T14:25:28;22.20;99.90
11615;DHT22;5863;52.832;4.758;2022-07-11T14:27:56;22.20;99.90
11615;DHT22;5863;52.832;4.758;2022-07-11T14:30:23;22.20;99.90
11615;DHT22;5863;52.832;4.758;2022-07-11T14:32:50;22.10;99.90
11615;DHT22;5863;52.832;4.758;2022-07-11T14:35:17;22.20;99.90
11615;DHT22;5863;52.832;4.758;2022-07-11T14:37:44;22.20;99.90
11615;DHT22;5863;52.832;4.758;2022-07-11T14:40:11;22.10;99.90
11615;DHT22;5863;52.832;4.758;2022-07-11T14:42:38;22.10;99.90
11615;DHT22;5863;52.832;4.758;2022-07-11T14:45:07;22.00;99.90
11615;DHT22;5863;52.832;4.758;2022-07-11T14:47:34;21.90;99.90
11615;DHT22;5863;52.832;4.758;2022-07-11T14:50:01;22.00;99.90
11615;DHT22;5863;52.832;4.758;2022-07-11T14:52:28;22.00;99.90
11615;DHT22;5863;52.832;4.758;2022-07-11T14:54:55;22.00;99.90
11615;DHT22;5863;52.832;4.758;2022-07-11T14:57:21;22.00;99.90
11615;DHT22;5863;52.832;4.758;2022-07-11T14:59:49;22.00;99.90
11615;DHT22;5863;52.832;4.758;2022-07-11T15:02:17;22.10;99.90
11615;DHT22;5863;52.832;4.758;2022-07-11T15:05:05;22.10;99.90
11615;DHT22;5863;52.832;4.758;2022-07-11T15:07:32;22.20;99.90
11615;DHT22;5863;52.832;4.758;2022-07-11T15:10:16;22.20;99.90
11615;DHT22;5863;52.832;4.758;2022-07-11T15:13:00;22.10;99.90
11615;DHT22;5863;52.832;4.758;2022-07-11T15:15:27;22.20;99.90
11615;DHT22;5863;52.832;4.758;2022-07-11T15:17:56;22.00;99.90
11615;DHT22;5863;52.832;4.758;2022-07-11T15:20:23;22.10;99.90
11615;DHT22;5863;52.832;4.758;2022-07-11T15:22:49;22.00;99.90
11615;DHT22;5863;52.832;4.758;2022-07-11T15:25:16;22.10;99.90
11615;DHT22;5863;52.832;4.758;2022-07-11T15:27:44;22.00;99.90
11615;DHT22;5863;52.832;4.758;2022-07-11T15:30:11;22.00;99.90
11615;DHT22;5863;52.832;4.758;2022-07-11T15:32:42;22.00;99.90
11615;DHT22;5863;52.832;4.758;2022-07-11T15:35:10;22.10;99.90
11615;DHT22;5863;52.832;4.758;2022-07-11T15:37:37;22.00;99.90
11615;DHT22;5863;52.832;4.758;2022-07-11T15:40:04;22.10;99.90
11615;DHT22;5863;52.832;4.758;2022-07-11T15:42:31;22.10;99.90
11615;DHT22;5863;52.832;4.758;2022-07-11T15:44:58;22.10;99.90
11615;DHT22;5863;52.832;4.758;2022-07-11T15:47:25;22.10;99.90
11615;DHT22;5863;52.832;4.758;2022-07-11T15:49:52;22.10;99.90
11615;DHT22;5863;52.832;4.758;2022-07-11T15:52:20;22.10;99.90
11615;DHT22;5863;52.832;4.758;2022-07-11T15:54:47;22.10;99.90